Hide A Way, Texas
Current Conditions -  °F | °C
As of 3:53 PM on Sunday 25 Jan 2015 (Local Time) from KTYR Reporting Station
Clear Clear  
Wind Chill: 64°   Ceiling: Unl
Heat Index: 64°   Visibility: 10mi
Dew Point: 26°   Wind: 21mph
Humidity: 24%   Direction: 290°WNW
Pressure: 30"   Gusts: 30mph
Location:  32.5326°N, 95.4249°W
Report Text: KTYR 252153Z 29018G26KT 10SM CLR 18/M03 A3000 RMK AO2 PK WND 31030/2128 SLP156 T01781033
Loading
Personal Weather Stations






























Interactive Weather Map New forecast layout! Learn more

10-Day Weather Forecast

Advertisements
Track Severe Weather on mobile